createdAt,value
2022-09-23T00:01:02.485Z,13.83
2022-09-23T00:03:31.482Z,13.50
2022-09-23T00:05:59.934Z,14.70
2022-09-23T00:08:29.237Z,14.97
2022-09-23T00:10:57.795Z,14.37
2022-09-23T00:13:25.581Z,14.50
2022-09-23T00:18:20.679Z,13.90
2022-09-23T00:20:48.369Z,14.70
2022-09-23T00:23:16.102Z,14.80
2022-09-23T00:25:45.183Z,13.20
2022-09-23T00:28:12.710Z,14.13
2022-09-23T00:30:42.265Z,14.63
2022-09-23T00:33:09.837Z,14.57
2022-09-23T00:35:38.565Z,14.03
2022-09-23T00:38:06.220Z,15.77
2022-09-23T00:40:33.924Z,14.90
2022-09-23T00:43:03.035Z,15.30
2022-09-23T00:45:31.067Z,14.67
2022-09-23T00:48:01.769Z,15.10
2022-09-23T00:50:32.151Z,15.00
2022-09-23T00:53:04.110Z,15.53
2022-09-23T00:55:37.550Z,16.53
2022-09-23T00:58:09.673Z,15.93
2022-09-23T01:00:37.510Z,16.03
2022-09-23T01:03:06.844Z,17.30
2022-09-23T01:05:34.771Z,15.67
2022-09-23T01:08:04.309Z,15.27
2022-09-23T01:10:43.187Z,15.20
2022-09-23T01:13:20.126Z,16.37
2022-09-23T01:15:53.654Z,16.33
2022-09-23T01:18:34.533Z,16.37
2022-09-23T01:21:31.989Z,16.90
2022-09-23T01:24:31.648Z,18.03
2022-09-23T01:27:28.020Z,17.40
2022-09-23T01:30:08.492Z,17.97
2022-09-23T01:32:45.385Z,17.30
2022-09-23T01:35:22.512Z,17.90
2022-09-23T01:37:57.004Z,18.67
2022-09-23T01:40:33.307Z,17.67
2022-09-23T01:43:07.252Z,18.23
2022-09-23T01:45:38.541Z,16.60
2022-09-23T01:48:13.861Z,17.40
2022-09-23T01:50:58.534Z,17.30
2022-09-23T01:53:32.889Z,16.90
2022-09-23T01:56:06.326Z,18.03
2022-09-23T01:58:41.840Z,17.80
2022-09-23T02:01:15.078Z,17.47
2022-09-23T02:03:49.992Z,17.67
2022-09-23T02:06:22.071Z,17.70
2022-09-23T02:08:54.526Z,17.90
2022-09-23T02:11:22.065Z,17.97
2022-09-23T02:13:54.222Z,17.20
2022-09-23T02:16:29.369Z,17.63
2022-09-23T02:19:03.427Z,18.07
2022-09-23T02:21:35.532Z,18.17
2022-09-23T02:24:10.106Z,17.90
2022-09-23T02:26:47.201Z,17.80
2022-09-23T02:29:21.506Z,17.53
2022-09-23T02:31:58.194Z,17.23
2022-09-23T02:34:36.162Z,17.37
2022-09-23T02:37:16.974Z,16.73
2022-09-23T02:39:58.157Z,17.50
2022-09-23T02:42:34.714Z,18.63
2022-09-23T02:45:02.330Z,17.60
2022-09-23T02:47:35.215Z,17.40
2022-09-23T02:50:04.586Z,16.50
2022-09-23T02:52:33.178Z,16.77
2022-09-23T02:55:01.566Z,16.70
2022-09-23T02:57:29.311Z,16.90
2022-09-23T02:59:58.375Z,17.47
2022-09-23T03:02:41.534Z,17.50
2022-09-23T03:05:23.753Z,18.23
2022-09-23T03:08:01.614Z,17.27
2022-09-23T03:10:34.881Z,16.03
2022-09-23T03:13:12.194Z,16.87
2022-09-23T03:15:52.300Z,17.57
2022-09-23T03:18:24.223Z,17.00
2022-09-23T03:20:59.269Z,17.30
2022-09-23T03:23:32.545Z,18.27
2022-09-23T03:26:05.918Z,17.10
2022-09-23T03:28:37.095Z,15.33
2022-09-23T03:31:06.143Z,16.80
2022-09-23T03:33:35.527Z,15.63
2022-09-23T03:36:27.370Z,17.03
2022-09-23T03:39:03.904Z,17.27
2022-09-23T03:41:36.201Z,15.20
2022-09-23T03:44:04.808Z,15.47
2022-09-23T03:46:35.403Z,16.77
2022-09-23T03:49:11.430Z,16.20
2022-09-23T03:51:43.985Z,16.13
2022-09-23T03:54:12.646Z,15.83
2022-09-23T03:56:40.171Z,16.70
2022-09-23T03:59:07.718Z,17.13
2022-09-23T04:01:35.258Z,16.97
2022-09-23T04:04:02.890Z,16.50
2022-09-23T04:06:30.454Z,17.00
2022-09-23T04:08:59.517Z,16.07
2022-09-23T04:11:27.062Z,16.67
2022-09-23T04:13:56.201Z,15.03
2022-09-23T04:16:24.009Z,15.80
2022-09-23T04:18:52.093Z,14.77
2022-09-23T04:21:19.987Z,15.10
2022-09-23T04:23:47.541Z,15.60
2022-09-23T04:26:16.677Z,14.60
2022-09-23T04:28:44.228Z,14.77
2022-09-23T04:31:11.810Z,15.77
2022-09-23T04:33:39.580Z,15.63
2022-09-23T04:36:07.715Z,16.20
2022-09-23T04:38:35.665Z,14.77
2022-09-23T04:41:03.228Z,16.40
2022-09-23T04:43:32.102Z,15.67
2022-09-23T04:46:00.608Z,16.73
2022-09-23T04:48:28.428Z,15.93
2022-09-23T04:51:02.169Z,17.00
2022-09-23T04:53:29.928Z,16.37
2022-09-23T04:56:02.334Z,15.57
2022-09-23T04:58:30.056Z,16.00
2022-09-23T05:01:04.374Z,16.50
2022-09-23T05:03:35.134Z,14.17
2022-09-23T05:06:02.994Z,15.13
2022-09-23T05:08:30.651Z,15.40
2022-09-23T05:10:58.826Z,17.87
2022-09-23T05:13:27.102Z,16.20
2022-09-23T05:16:04.359Z,17.27
2022-09-23T05:18:32.947Z,17.40
2022-09-23T05:21:01.486Z,17.47
2022-09-23T05:23:29.457Z,16.53
2022-09-23T05:25:58.994Z,17.03
2022-09-23T05:28:28.063Z,16.90
2022-09-23T05:31:05.298Z,16.30
2022-09-23T05:33:32.978Z,17.07
2022-09-23T05:36:00.816Z,16.60
2022-09-23T05:38:28.819Z,16.13
2022-09-23T05:40:57.621Z,16.07
2022-09-23T05:43:25.615Z,17.37
2022-09-23T05:46:05.899Z,16.00
2022-09-23T05:48:37.805Z,16.13
2022-09-23T05:51:12.630Z,15.67
2022-09-23T05:53:41.610Z,15.90
2022-09-23T05:56:09.159Z,16.13
2022-09-23T05:58:36.718Z,17.20
2022-09-23T06:01:10.555Z,16.50
2022-09-23T06:03:39.725Z,17.03
2022-09-23T06:06:08.272Z,16.40
2022-09-23T06:08:36.032Z,16.87
2022-09-23T06:11:08.071Z,15.90
2022-09-23T06:13:38.108Z,16.10
2022-09-23T06:16:07.949Z,15.70
2022-09-23T06:18:36.014Z,15.80
2022-09-23T06:21:06.203Z,15.70
2022-09-23T06:23:37.189Z,17.10
2022-09-23T06:26:09.719Z,16.10
2022-09-23T06:28:38.752Z,16.23
2022-09-23T06:31:13.106Z,17.57
2022-09-23T06:33:42.381Z,16.60
2022-09-23T06:36:15.045Z,16.53
2022-09-23T06:38:49.197Z,17.53
2022-09-23T06:41:16.864Z,17.80
2022-09-23T06:43:44.397Z,17.53
2022-09-23T06:46:17.049Z,16.20
2022-09-23T06:48:46.291Z,14.90
2022-09-23T06:51:19.138Z,15.23
2022-09-23T06:53:48.122Z,15.10
2022-09-23T06:56:17.247Z,14.50
2022-09-23T06:58:44.831Z,14.00
2022-09-23T07:01:15.967Z,13.10
2022-09-23T07:03:44.321Z,12.83
2022-09-23T07:06:12.262Z,11.10
2022-09-23T07:08:44.005Z,10.27
2022-09-23T07:11:12.251Z,9.53
2022-09-23T07:13:41.132Z,8.40
2022-09-23T07:16:10.649Z,9.00
2022-09-23T07:18:38.774Z,8.43
2022-09-23T07:21:08.375Z,7.30
2022-09-23T07:23:37.640Z,8.80
2022-09-23T07:26:07.818Z,7.77
2022-09-23T07:28:36.940Z,7.20
2022-09-23T07:31:07.610Z,7.07
2022-09-23T07:33:35.934Z,7.10
2022-09-23T07:36:08.732Z,7.37
2022-09-23T07:38:39.458Z,7.07
2022-09-23T07:41:12.317Z,7.50
2022-09-23T07:43:40.719Z,6.90
2022-09-23T07:46:10.951Z,7.40
2022-09-23T07:48:39.051Z,7.27
2022-09-23T07:51:11.523Z,7.30
2022-09-23T07:53:39.418Z,7.20
2022-09-23T07:56:07.223Z,8.20
2022-09-23T07:58:36.541Z,7.70
2022-09-23T08:01:06.198Z,7.23
2022-09-23T08:03:34.393Z,8.40
2022-09-23T08:06:10.467Z,7.33
2022-09-23T08:08:39.371Z,7.37
2022-09-23T08:11:09.882Z,8.27
2022-09-23T08:13:38.898Z,7.50
2022-09-23T08:16:06.880Z,7.87
2022-09-23T08:18:35.030Z,7.80
2022-09-23T08:21:02.988Z,8.70
2022-09-23T08:23:33.419Z,8.70
2022-09-23T08:26:03.185Z,6.70
2022-09-23T08:28:31.142Z,6.73
2022-09-23T08:31:00.552Z,11.17
2022-09-23T08:33:28.396Z,10.37
2022-09-23T08:36:00.569Z,7.00
2022-09-23T08:38:28.205Z,7.03
2022-09-23T08:41:06.766Z,7.80
2022-09-23T08:43:37.440Z,6.70
2022-09-23T08:46:11.743Z,7.83
2022-09-23T08:48:43.678Z,7.30
2022-09-23T08:51:15.905Z,6.73
2022-09-23T08:53:45.483Z,6.93
2022-09-23T08:56:15.821Z,7.20
2022-09-23T08:58:52.962Z,8.23
2022-09-23T09:01:27.369Z,8.20
2022-09-23T09:03:57.029Z,6.63
2022-09-23T09:06:31.942Z,7.10
2022-09-23T09:09:02.462Z,7.00
2022-09-23T09:11:36.835Z,6.60
2022-09-23T09:14:16.519Z,7.43
2022-09-23T09:17:00.666Z,6.77
2022-09-23T09:19:44.354Z,6.80
2022-09-23T09:22:21.753Z,7.00
2022-09-23T09:24:51.336Z,7.23
2022-09-23T09:27:19.145Z,7.17
2022-09-23T09:29:50.210Z,9.03
2022-09-23T09:32:37.753Z,7.77
2022-09-23T09:35:16.694Z,6.50
2022-09-23T09:37:48.543Z,6.50
2022-09-23T09:40:17.720Z,7.00
2022-09-23T09:42:48.366Z,7.30
2022-09-23T09:45:25.059Z,6.83
2022-09-23T09:48:03.400Z,7.17
2022-09-23T09:50:49.109Z,6.20
2022-09-23T09:53:22.313Z,6.40
2022-09-23T09:56:04.697Z,6.50
2022-09-23T09:58:41.573Z,6.30
2022-09-23T10:01:09.583Z,5.70
2022-09-23T10:03:44.111Z,6.07
2022-09-23T10:06:21.540Z,6.33
2022-09-23T10:09:11.513Z,5.90
2022-09-23T10:11:40.337Z,5.60
2022-09-23T10:14:13.428Z,4.97
2022-09-23T10:16:42.277Z,5.70
2022-09-23T10:19:24.944Z,5.83
2022-09-23T10:21:56.843Z,5.30
2022-09-23T10:24:27.180Z,5.83
2022-09-23T10:27:00.064Z,5.00
2022-09-23T10:29:32.343Z,5.50
2022-09-23T10:32:26.496Z,5.90
2022-09-23T10:34:58.467Z,5.00
2022-09-23T10:37:33.559Z,5.43
2022-09-23T10:40:29.610Z,6.23
2022-09-23T10:43:40.605Z,6.27
2022-09-23T10:46:31.509Z,4.90
2022-09-23T10:49:18.247Z,5.97
2022-09-23T10:51:56.135Z,4.70
2022-09-23T10:54:32.978Z,4.70
2022-09-23T10:57:28.906Z,5.93
2022-09-23T11:00:05.555Z,5.13
2022-09-23T11:02:50.157Z,5.13
2022-09-23T11:05:27.373Z,5.20
2022-09-23T11:08:08.306Z,4.37
2022-09-23T11:10:49.671Z,5.20
2022-09-23T11:13:31.189Z,4.70
2022-09-23T11:16:07.266Z,4.37
2022-09-23T11:18:49.673Z,6.13
2022-09-23T11:21:35.273Z,4.10
2022-09-23T11:24:23.555Z,5.17
2022-09-23T11:27:03.778Z,5.00
2022-09-23T11:29:52.239Z,5.80
2022-09-23T11:32:46.982Z,4.77
2022-09-23T11:35:20.425Z,5.13
2022-09-23T11:37:52.202Z,5.50
2022-09-23T11:40:29.503Z,5.13
2022-09-23T11:43:02.578Z,5.93
2022-09-23T11:45:34.787Z,4.67
2022-09-23T11:48:10.427Z,6.30
2022-09-23T11:50:42.925Z,4.93
2022-09-23T11:53:18.555Z,4.97
2022-09-23T11:55:57.887Z,4.23
2022-09-23T11:58:30.377Z,5.63
2022-09-23T12:01:03.379Z,4.83
2022-09-23T12:03:45.106Z,4.20
2022-09-23T12:06:16.871Z,4.13
2022-09-23T12:08:44.607Z,4.67
2022-09-23T12:11:23.049Z,4.13
2022-09-23T12:13:56.090Z,5.87
2022-09-23T12:16:44.490Z,4.87
2022-09-23T12:19:24.253Z,4.03
2022-09-23T12:22:11.898Z,3.90
2022-09-23T12:24:48.097Z,7.73
2022-09-23T12:27:29.991Z,4.67
2022-09-23T12:30:00.937Z,4.67
2022-09-23T12:32:29.564Z,5.00
2022-09-23T12:34:57.534Z,5.03
2022-09-23T12:37:33.931Z,4.60
2022-09-23T12:40:09.203Z,4.70
2022-09-23T12:42:45.904Z,4.67
2022-09-23T12:45:35.394Z,4.50
2022-09-23T12:48:04.928Z,4.60
2022-09-23T12:50:51.392Z,4.93
2022-09-23T12:53:55.621Z,4.43
2022-09-23T12:56:26.395Z,4.70
2022-09-23T12:59:25.093Z,4.07
2022-09-23T13:01:52.890Z,4.10
2022-09-23T13:04:50.717Z,4.80
2022-09-23T13:07:20.093Z,4.30
2022-09-23T13:09:50.539Z,4.87
2022-09-23T13:12:24.653Z,6.90
2022-09-23T13:14:58.038Z,4.50
2022-09-23T13:17:31.766Z,4.30
2022-09-23T13:20:05.760Z,5.90
2022-09-23T13:22:42.695Z,3.73
2022-09-23T13:25:20.526Z,4.87
2022-09-23T13:27:50.409Z,4.30
2022-09-23T13:30:25.900Z,4.20
2022-09-23T13:33:03.777Z,5.00
2022-09-23T13:35:35.550Z,4.30
2022-09-23T13:38:11.454Z,4.90
2022-09-23T13:40:42.402Z,4.23
2022-09-23T13:43:17.000Z,4.20
2022-09-23T13:45:45.978Z,5.27
2022-09-23T13:48:15.703Z,4.67
2022-09-23T13:50:48.464Z,6.07
2022-09-23T13:53:23.256Z,4.30
2022-09-23T13:56:01.422Z,4.53
2022-09-23T13:58:31.437Z,5.23
2022-09-23T14:01:01.153Z,4.17
2022-09-23T14:03:36.073Z,4.60
2022-09-23T14:06:09.549Z,4.83
2022-09-23T14:08:40.048Z,4.93
2022-09-23T14:11:07.886Z,5.20
2022-09-23T14:13:42.286Z,5.30
2022-09-23T14:16:14.783Z,4.93
2022-09-23T14:18:46.175Z,5.10
2022-09-23T14:21:28.424Z,4.40
2022-09-23T14:23:56.305Z,4.17
2022-09-23T14:26:25.326Z,5.17
2022-09-23T14:28:53.722Z,4.23
2022-09-23T14:31:24.369Z,4.70
2022-09-23T14:33:52.210Z,5.23
2022-09-23T14:36:37.809Z,5.07
2022-09-23T14:39:08.060Z,5.37
2022-09-23T14:41:38.829Z,4.77
2022-09-23T14:44:07.924Z,4.40
2022-09-23T14:46:39.998Z,4.60
2022-09-23T14:49:17.161Z,4.80
2022-09-23T14:51:49.054Z,4.93
2022-09-23T14:54:34.315Z,4.27
2022-09-23T14:57:02.889Z,4.40
2022-09-23T14:59:35.613Z,4.17
2022-09-23T15:02:32.532Z,4.93
2022-09-23T15:05:16.604Z,3.50
2022-09-23T15:07:47.907Z,4.67
2022-09-23T15:10:23.597Z,4.67
2022-09-23T15:12:53.457Z,6.77
2022-09-23T15:15:25.902Z,4.60
2022-09-23T15:17:55.246Z,5.30
2022-09-23T15:20:26.289Z,4.50
2022-09-23T15:22:55.659Z,4.70
2022-09-23T15:25:27.528Z,4.43
2022-09-23T15:28:00.775Z,3.90
2022-09-23T15:30:28.650Z,6.20
2022-09-23T15:32:57.571Z,4.90
2022-09-23T15:35:26.649Z,4.33
2022-09-23T15:37:58.186Z,4.47
2022-09-23T15:40:28.416Z,8.53
2022-09-23T15:42:57.886Z,5.10
2022-09-23T15:45:33.376Z,5.60
2022-09-23T15:48:08.059Z,4.87
2022-09-23T15:50:36.718Z,4.57
2022-09-23T15:53:05.870Z,4.70
2022-09-23T15:55:34.080Z,5.10
2022-09-23T15:58:01.609Z,4.70
2022-09-23T16:00:29.179Z,4.60
2022-09-23T16:02:56.710Z,5.40
2022-09-23T16:05:30.618Z,4.40
2022-09-23T16:07:58.322Z,7.07
2022-09-23T16:10:26.142Z,4.33
2022-09-23T16:12:56.839Z,4.90
2022-09-23T16:15:25.203Z,5.07
2022-09-23T16:17:53.149Z,5.00
2022-09-23T16:20:20.735Z,5.37
2022-09-23T16:22:54.586Z,7.60
2022-09-23T16:25:25.259Z,4.83
2022-09-23T16:27:55.258Z,4.77
2022-09-23T16:30:23.770Z,4.60
2022-09-23T16:32:51.619Z,5.00
2022-09-23T16:35:19.828Z,5.03
2022-09-23T16:37:49.310Z,4.60
2022-09-23T16:40:19.781Z,5.33
2022-09-23T16:42:47.849Z,6.30
2022-09-23T16:45:16.775Z,5.50
2022-09-23T16:47:46.110Z,6.97
2022-09-23T16:50:14.971Z,7.77
2022-09-23T16:52:42.645Z,7.07
2022-09-23T16:55:13.052Z,5.80
2022-09-23T16:57:41.774Z,6.93
2022-09-23T17:00:31.626Z,6.70
2022-09-23T17:03:16.702Z,6.13
2022-09-23T17:05:46.740Z,9.00
2022-09-23T17:08:16.063Z,6.17
2022-09-23T17:10:46.930Z,5.37
2022-09-23T17:13:17.555Z,6.23
2022-09-23T17:15:45.097Z,7.37
2022-09-23T17:18:15.503Z,6.90
2022-09-23T17:20:45.216Z,7.67
2022-09-23T17:23:12.757Z,8.63
2022-09-23T17:25:40.377Z,6.67
2022-09-23T17:28:09.355Z,6.47
2022-09-23T17:30:37.281Z,7.47
2022-09-23T17:33:04.950Z,7.10
2022-09-23T17:35:32.478Z,7.70
2022-09-23T17:38:00.026Z,9.07
2022-09-23T17:40:27.674Z,10.43
2022-09-23T17:42:55.226Z,7.33
2022-09-23T17:45:24.194Z,6.97
2022-09-23T17:47:54.798Z,6.50
2022-09-23T17:50:22.616Z,12.77
2022-09-23T17:52:50.242Z,17.27
2022-09-23T17:55:18.074Z,12.20
2022-09-23T17:57:45.661Z,9.37
2022-09-23T18:00:14.142Z,11.67
2022-09-23T18:02:43.011Z,21.00
2022-09-23T18:05:10.849Z,24.37
2022-09-23T18:07:38.358Z,22.50
2022-09-23T18:10:07.038Z,16.77
2022-09-23T18:12:34.562Z,14.33
2022-09-23T18:15:02.116Z,14.83
2022-09-23T18:17:29.636Z,12.20
2022-09-23T18:19:58.517Z,9.80
2022-09-23T18:22:26.034Z,9.77
2022-09-23T18:24:53.565Z,7.43
2022-09-23T18:27:21.077Z,8.90
2022-09-23T18:29:48.603Z,11.33
2022-09-23T18:32:16.209Z,8.07
2022-09-23T18:34:43.778Z,8.97
2022-09-23T18:37:16.171Z,7.37
2022-09-23T18:39:44.699Z,8.90
2022-09-23T18:42:13.001Z,9.07
2022-09-23T18:44:40.615Z,7.63
2022-09-23T18:47:08.163Z,9.53
2022-09-23T18:49:53.251Z,8.83
2022-09-23T18:52:22.150Z,14.27
2022-09-23T18:54:54.339Z,8.50
2022-09-23T18:57:22.530Z,9.17
2022-09-23T18:59:50.047Z,9.37
2022-09-23T19:02:17.633Z,9.00
2022-09-23T19:04:45.194Z,8.40
2022-09-23T19:07:12.750Z,9.10
2022-09-23T19:09:41.726Z,10.13
2022-09-23T19:12:09.258Z,10.73
2022-09-23T19:14:36.799Z,10.27
2022-09-23T19:17:05.025Z,8.60
2022-09-23T19:19:32.891Z,11.30
2022-09-23T19:22:00.639Z,10.40
2022-09-23T19:24:28.199Z,9.90
2022-09-23T19:26:57.125Z,10.30
2022-09-23T19:29:24.918Z,9.67
2022-09-23T19:31:52.495Z,11.93
2022-09-23T19:34:23.675Z,9.23
2022-09-23T19:36:51.426Z,10.57
2022-09-23T19:39:20.905Z,11.10
2022-09-23T19:41:49.505Z,11.30
2022-09-23T19:44:19.899Z,10.80
2022-09-23T19:46:53.361Z,13.07
2022-09-23T19:49:23.841Z,11.63
2022-09-23T19:51:51.414Z,12.33
2022-09-23T19:54:20.348Z,11.47
2022-09-23T19:56:48.566Z,12.83
2022-09-23T19:59:18.745Z,15.80
2022-09-23T20:01:48.989Z,16.73
2022-09-23T20:04:16.780Z,15.03
2022-09-23T20:06:45.805Z,12.97
2022-09-23T20:09:13.400Z,15.20
2022-09-23T20:11:44.053Z,13.00
2022-09-23T20:14:13.345Z,12.10
2022-09-23T20:16:41.345Z,14.57
2022-09-23T20:19:10.479Z,14.47
2022-09-23T20:21:38.077Z,14.47
2022-09-23T20:24:07.391Z,15.70
2022-09-23T20:26:52.693Z,17.30
2022-09-23T20:29:20.272Z,15.60
2022-09-23T20:31:48.016Z,14.10
2022-09-23T20:34:16.979Z,13.80
2022-09-23T20:36:44.543Z,13.97
2022-09-23T20:39:12.366Z,14.67
2022-09-23T20:41:40.018Z,14.97
2022-09-23T20:44:12.149Z,13.53
2022-09-23T20:46:42.980Z,15.33
2022-09-23T20:49:14.521Z,12.93
2022-09-23T20:51:43.400Z,15.90
2022-09-23T20:54:11.958Z,13.37
2022-09-23T20:56:39.540Z,15.57
2022-09-23T20:59:07.070Z,15.60
2022-09-23T21:01:36.396Z,19.60
2022-09-23T21:04:05.647Z,16.23
2022-09-23T21:06:35.570Z,14.60
2022-09-23T21:09:05.332Z,14.13
2022-09-23T21:11:33.819Z,15.20
2022-09-23T21:14:02.062Z,15.53
2022-09-23T21:16:30.385Z,17.20
2022-09-23T21:18:58.943Z,15.67
2022-09-23T21:21:27.139Z,16.63
2022-09-23T21:23:54.666Z,15.70
2022-09-23T21:26:25.314Z,15.60
2022-09-23T21:28:54.616Z,15.50
2022-09-23T21:31:25.411Z,19.93
2022-09-23T21:33:54.366Z,18.40
2022-09-23T21:36:23.286Z,17.83
2022-09-23T21:38:51.260Z,18.40
2022-09-23T21:41:19.066Z,17.23
2022-09-23T21:43:49.461Z,18.27
2022-09-23T21:46:20.055Z,19.70
2022-09-23T21:48:49.859Z,18.17
2022-09-23T21:51:20.089Z,20.60
2022-09-23T21:53:48.972Z,17.60
2022-09-23T21:56:21.058Z,18.23
2022-09-23T21:58:52.065Z,16.57
2022-09-23T22:01:21.324Z,16.63
2022-09-23T22:03:51.791Z,17.43
2022-09-23T22:06:21.411Z,18.60
2022-09-23T22:08:51.067Z,19.73
2022-09-23T22:11:37.967Z,19.13
2022-09-23T22:14:08.964Z,15.13
2022-09-23T22:16:36.819Z,19.00
2022-09-23T22:19:06.863Z,19.60
2022-09-23T22:21:37.994Z,17.30
2022-09-23T22:24:07.730Z,20.33
2022-09-23T22:26:36.993Z,21.07
2022-09-23T22:29:23.356Z,18.40
2022-09-23T22:32:09.876Z,20.00
2022-09-23T22:34:49.379Z,19.10
2022-09-23T22:37:19.972Z,19.40
2022-09-23T22:39:47.944Z,21.03
2022-09-23T22:42:16.014Z,17.90
2022-09-23T22:44:43.747Z,17.60
2022-09-23T22:47:12.748Z,17.83
2022-09-23T22:49:40.742Z,19.93
2022-09-23T22:52:08.361Z,22.37
2022-09-23T22:54:36.527Z,21.90
2022-09-23T22:57:05.478Z,20.47
2022-09-23T22:59:33.077Z,24.33
2022-09-23T23:02:02.352Z,22.13
2022-09-23T23:04:31.803Z,22.60
2022-09-23T23:06:59.614Z,26.10
2022-09-23T23:09:27.567Z,24.67
2022-09-23T23:11:55.193Z,24.93
2022-09-23T23:14:22.955Z,25.67
2022-09-23T23:16:50.663Z,25.37
2022-09-23T23:19:19.033Z,24.07
2022-09-23T23:21:47.910Z,29.33
2022-09-23T23:24:17.059Z,25.27
2022-09-23T23:26:45.629Z,24.57
2022-09-23T23:29:14.822Z,25.60
2022-09-23T23:31:43.600Z,26.97
2022-09-23T23:34:13.438Z,23.77
2022-09-23T23:36:41.472Z,27.80
2022-09-23T23:39:11.257Z,27.30
2022-09-23T23:41:39.402Z,29.07
2022-09-23T23:44:07.699Z,30.47
2022-09-23T23:46:37.142Z,26.97
2022-09-23T23:49:06.727Z,26.63
2022-09-23T23:51:34.283Z,28.80
2022-09-23T23:54:01.970Z,25.13
2022-09-23T23:56:31.885Z,28.47
2022-09-23T23:59:02.441Z,27.37
